Terminal Aerodrome Forecast
Issued by NWS Sioux Falls, SD

Home | Current Version | Previous Version | Text Only | Print | Product List | Glossary On
Versions: 1 2 3 4 5 6 7 8 9 10 11 12 13 14 15 16 17 18 19 20
000
FTUS43 KFSD 222300
TAFSUX
TAF
KSUX 222320Z 2300/2324 14011G17KT P6SM BKN120
     FM230400 14014G21KT P6SM BKN080
     FM230900 15019G30KT P6SM BKN080
     FM231500 15027G39KT P6SM OVC120
     FM232200 16024G34KT P6SM OVC100=

USA.gov is the U.S. government's official web portal to all federal, state and local government web resources and services.